Time;durP1;ratioP1;P1;durP2;ratioP2;P2;SDS_P1;SDS_P2;PMS_P1;PMS_P2;Temp;Humidity;BMP_temperature;BMP_pressure;BME280_temperature;BME280_humidity;BME280_pressure;Samples;Min_cycle;Max_cycle;Signal;HPM_P1;HPM_P2
2024/01/27 00:00:54;;;;;;;3.43;2.20;;;;;;;;;;6187932;28;20291;-58
2024/01/27 00:03:58;;;;;;;2.03;1.90;;;;;;;;;;6186132;28;20290;-58
2024/01/27 00:07:02;;;;;;;2.50;2.30;;;;;;;;;;6187927;28;20296;-57
2024/01/27 00:10:08;;;;;;;2.17;1.93;;;;;;;;;;6181674;28;20302;-56
2024/01/27 00:13:14;;;;;;;2.40;2.30;;;;;;;;;;6163357;28;20303;-57
2024/01/27 00:16:17;;;;;;;1.90;1.90;;;;;;;;;;6163237;28;20305;-56
2024/01/27 00:19:21;;;;;;;2.47;2.37;;;;;;;;;;6163313;28;20388;-57
2024/01/27 00:22:26;;;;;;;2.33;2.23;;;;;;;;;;6163063;28;20307;-53
2024/01/27 00:25:30;;;;;;;2.50;2.40;;;;;;;;;;6169619;28;20307;-57
2024/01/27 00:28:35;;;;;;;2.70;2.50;;;;;;;;;;6186579;28;20296;-56
2024/01/27 00:31:39;;;;;;;2.23;2.23;;;;;;;;;;6187205;28;20301;-57
2024/01/27 00:34:43;;;;;;;2.40;2.30;;;;;;;;;;6186799;28;20303;-57
2024/01/27 00:37:47;;;;;;;2.87;2.73;;;;;;;;;;6168864;28;20317;-56
2024/01/27 00:40:51;;;;;;;6.77;3.77;;;;;;;;;;6184374;28;20297;-54
2024/01/27 00:43:56;;;;;;;15.23;6.30;;;;;;;;;;6186269;28;20290;-56
2024/01/27 00:47:00;;;;;;;17.80;7.03;;;;;;;;;;6186949;28;20303;-56
2024/01/27 00:50:05;;;;;;;18.10;6.27;;;;;;;;;;6187052;28;20299;-57
2024/01/27 00:53:09;;;;;;;10.93;4.90;;;;;;;;;;6186207;28;20376;-57
2024/01/27 00:56:13;;;;;;;12.37;6.17;;;;;;;;;;6186778;28;20299;-57
2024/01/27 00:59:18;;;;;;;14.40;6.07;;;;;;;;;;6185048;28;20383;-57
2024/01/27 01:02:22;;;;;;;15.87;6.20;;;;;;;;;;6186619;28;20305;-58
2024/01/27 01:05:26;;;;;;;11.87;6.10;;;;;;;;;;6186148;28;20297;-55
2024/01/27 01:08:30;;;;;;;9.30;4.90;;;;;;;;;;6184960;28;20305;-56
2024/01/27 01:11:35;;;;;;;6.63;4.10;;;;;;;;;;6167563;28;20302;-58
2024/01/27 01:14:44;;;;;;;3.60;3.30;;;;;;;;;;6162047;28;20576;-57
2024/01/27 01:17:48;;;;;;;3.37;3.13;;;;;;;;;;6161883;28;20577;-58
2024/01/27 01:20:52;;;;;;;3.57;2.90;;;;;;;;;;6162035;28;20547;-58
2024/01/27 01:23:57;;;;;;;3.10;2.90;;;;;;;;;;6161650;28;20486;-56
2024/01/27 01:27:01;;;;;;;3.07;2.67;;;;;;;;;;6181579;28;20297;-58
2024/01/27 01:30:09;;;;;;;2.60;2.50;;;;;;;;;;6185400;28;20300;-57
2024/01/27 01:33:13;;;;;;;3.20;3.00;;;;;;;;;;6184232;28;20513;-56
2024/01/27 01:36:17;;;;;;;2.70;2.60;;;;;;;;;;6185821;28;20334;-58
2024/01/27 01:39:21;;;;;;;3.13;3.03;;;;;;;;;;6185072;28;20388;-58
2024/01/27 01:42:25;;;;;;;3.60;3.20;;;;;;;;;;6184718;28;20303;-56
2024/01/27 01:45:31;;;;;;;2.83;2.73;;;;;;;;;;6185089;28;20302;-54
2024/01/27 01:48:35;;;;;;;3.83;3.53;;;;;;;;;;6185227;28;20293;-56
2024/01/27 01:51:40;;;;;;;3.53;3.33;;;;;;;;;;6185248;28;20480;-58
2024/01/27 01:54:44;;;;;;;4.37;3.53;;;;;;;;;;6183781;28;20289;-56
2024/01/27 01:57:48;;;;;;;4.50;3.60;;;;;;;;;;6184904;28;20332;-56
2024/01/27 02:00:54;;;;;;;3.73;3.43;;;;;;;;;;6185159;28;20308;-56
2024/01/27 02:03:58;;;;;;;4.60;4.20;;;;;;;;;;6182671;28;20294;-57
2024/01/27 02:07:02;;;;;;;10.53;4.93;;;;;;;;;;6184288;28;20290;-57
2024/01/27 02:10:08;;;;;;;9.07;6.10;;;;;;;;;;6183970;28;20602;-56
2024/01/27 02:13:18;;;;;;;7.50;5.30;;;;;;;;;;6183190;28;20297;-56
2024/01/27 02:16:25;;;;;;;4.77;4.37;;;;;;;;;;6176404;28;20590;-57
2024/01/27 02:19:29;;;;;;;4.90;4.40;;;;;;;;;;6184778;28;20585;-57
2024/01/27 02:22:33;;;;;;;6.50;4.37;;;;;;;;;;6157133;28;20485;-55
2024/01/27 02:25:38;;;;;;;4.33;4.00;;;;;;;;;;6185194;28;20295;-58
2024/01/27 02:28:42;;;;;;;4.57;4.17;;;;;;;;;;6183982;28;20297;-55
2024/01/27 02:31:46;;;;;;;4.40;4.00;;;;;;;;;;6184906;28;20456;-57
2024/01/27 02:34:50;;;;;;;4.90;4.43;;;;;;;;;;6184408;28;20291;-57
2024/01/27 02:37:54;;;;;;;4.37;4.07;;;;;;;;;;6183375;28;20401;-57
2024/01/27 02:41:01;;;;;;;4.40;4.10;;;;;;;;;;6185010;28;20228;-57
2024/01/27 02:44:05;;;;;;;6.20;4.80;;;;;;;;;;6183328;28;20307;-57
2024/01/27 02:47:09;;;;;;;6.27;4.80;;;;;;;;;;6184103;28;20298;-57
2024/01/27 02:50:13;;;;;;;4.23;3.93;;;;;;;;;;6184451;28;20303;-56
2024/01/27 02:53:17;;;;;;;7.63;4.13;;;;;;;;;;6166213;28;20483;-53
2024/01/27 02:56:22;;;;;;;12.90;6.00;;;;;;;;;;6184343;28;20309;-56
2024/01/27 02:59:26;;;;;;;7.57;5.63;;;;;;;;;;6183670;28;20297;-57
2024/01/27 03:02:30;;;;;;;16.20;6.77;;;;;;;;;;6183540;28;20323;-56
2024/01/27 03:05:34;;;;;;;13.50;6.57;;;;;;;;;;6184495;28;20290;-57
2024/01/27 03:08:38;;;;;;;10.23;4.60;;;;;;;;;;6184018;28;20572;-55
2024/01/27 03:11:43;;;;;;;6.63;4.17;;;;;;;;;;6184362;28;20290;-55
2024/01/27 03:14:49;;;;;;;7.17;3.63;;;;;;;;;;6184018;28;20302;-54
2024/01/27 03:17:53;;;;;;;6.30;3.57;;;;;;;;;;6183746;28;20299;-55
2024/01/27 03:20:57;;;;;;;2.20;2.10;;;;;;;;;;6184054;28;20281;-57
2024/01/27 03:24:01;;;;;;;2.07;1.87;;;;;;;;;;6183424;28;20306;-56
2024/01/27 03:27:07;;;;;;;1.67;1.67;;;;;;;;;;6184460;28;20610;-57
2024/01/27 03:30:11;;;;;;;2.10;2.00;;;;;;;;;;6183113;28;20297;-57
2024/01/27 03:33:15;;;;;;;4.07;2.83;;;;;;;;;;6182806;28;20324;-57
2024/01/27 03:36:19;;;;;;;3.77;3.47;;;;;;;;;;6187975;28;20307;-57
2024/01/27 03:39:23;;;;;;;4.17;3.13;;;;;;;;;;6187241;28;20301;-54
2024/01/27 03:42:29;;;;;;;4.27;2.93;;;;;;;;;;6188185;28;20291;-54
2024/01/27 03:45:33;;;;;;;8.27;3.70;;;;;;;;;;6187890;28;20296;-56
2024/01/27 03:48:37;;;;;;;2.57;2.33;;;;;;;;;;6175991;28;20300;-55
2024/01/27 03:51:41;;;;;;;3.43;2.90;;;;;;;;;;6187884;28;20784;-54
2024/01/27 03:54:46;;;;;;;4.87;3.67;;;;;;;;;;6188431;28;20303;-56
2024/01/27 03:57:51;;;;;;;2.93;2.60;;;;;;;;;;6186576;28;20294;-54
2024/01/27 04:00:55;;;;;;;4.47;3.03;;;;;;;;;;6187974;28;20246;-56
2024/01/27 04:03:59;;;;;;;6.13;3.20;;;;;;;;;;6185926;28;20610;-55
2024/01/27 04:07:03;;;;;;;6.70;3.47;;;;;;;;;;6187580;28;20296;-56
2024/01/27 04:10:08;;;;;;;4.00;2.10;;;;;;;;;;6186574;28;20296;-55
2024/01/27 04:13:14;;;;;;;1.60;1.60;;;;;;;;;;6187383;28;20298;-57
2024/01/27 04:16:18;;;;;;;4.47;2.10;;;;;;;;;;6185853;28;20297;-57
2024/01/27 04:19:22;;;;;;;1.97;1.80;;;;;;;;;;6185749;28;20305;-56
2024/01/27 04:22:26;;;;;;;1.40;1.40;;;;;;;;;;6186937;28;20293;-54
2024/01/27 04:25:30;;;;;;;1.40;1.40;;;;;;;;;;6185684;28;20310;-56
2024/01/27 04:28:35;;;;;;;1.43;1.43;;;;;;;;;;6185394;28;20301;-56
2024/01/27 04:31:41;;;;;;;1.30;1.30;;;;;;;;;;6162823;29;20306;-56
2024/01/27 04:34:45;;;;;;;1.37;1.37;;;;;;;;;;6162723;29;20313;-57
2024/01/27 04:37:49;;;;;;;1.50;1.50;;;;;;;;;;6162536;28;20298;-56
2024/01/27 04:40:53;;;;;;;1.70;1.70;;;;;;;;;;6162786;28;20297;-57
2024/01/27 04:43:58;;;;;;;1.37;1.37;;;;;;;;;;6151924;28;20298;-57
2024/01/27 04:47:03;;;;;;;1.40;1.40;;;;;;;;;;6162185;28;20291;-57
2024/01/27 04:50:07;;;;;;;1.30;1.30;;;;;;;;;;6161877;28;20298;-58
2024/01/27 04:53:11;;;;;;;1.40;1.40;;;;;;;;;;6162757;28;20295;-57
2024/01/27 04:56:15;;;;;;;1.40;1.40;;;;;;;;;;6162435;28;20300;-56
2024/01/27 04:59:21;;;;;;;1.40;1.40;;;;;;;;;;6162336;28;20304;-57
2024/01/27 05:02:25;;;;;;;1.40;1.40;;;;;;;;;;6162764;28;20295;-56
2024/01/27 05:05:29;;;;;;;1.70;1.70;;;;;;;;;;6163823;28;20298;-57
2024/01/27 05:08:36;;;;;;;1.40;1.37;;;;;;;;;;6162289;28;20301;-58
2024/01/27 05:11:40;;;;;;;1.40;1.40;;;;;;;;;;6179134;28;20297;-56
2024/01/27 05:14:46;;;;;;;1.50;1.40;;;;;;;;;;6185033;28;20301;-55
2024/01/27 05:17:50;;;;;;;1.47;1.47;;;;;;;;;;6185203;28;20301;-56
2024/01/27 05:20:54;;;;;;;1.40;1.40;;;;;;;;;;6185272;28;20469;-56
2024/01/27 05:23:58;;;;;;;1.57;1.57;;;;;;;;;;6184972;28;20297;-56
2024/01/27 05:27:02;;;;;;;1.30;1.30;;;;;;;;;;6186155;28;20297;-56
2024/01/27 05:30:09;;;;;;;1.23;1.23;;;;;;;;;;6185301;28;20298;-57
2024/01/27 05:33:14;;;;;;;1.20;1.20;;;;;;;;;;6186019;28;20306;-55
2024/01/27 05:36:18;;;;;;;1.10;1.10;;;;;;;;;;6185184;28;20292;-57
2024/01/27 05:39:22;;;;;;;1.00;1.00;;;;;;;;;;6184642;28;20636;-59
2024/01/27 05:42:26;;;;;;;1.20;1.20;;;;;;;;;;6185540;28;20481;-55
2024/01/27 05:45:32;;;;;;;1.30;1.30;;;;;;;;;;6184741;28;20313;-57
2024/01/27 05:48:36;;;;;;;1.30;1.30;;;;;;;;;;6167550;28;20480;-58
2024/01/27 05:51:40;;;;;;;1.20;1.20;;;;;;;;;;6185045;28;20594;-53
2024/01/27 05:54:44;;;;;;;1.07;1.07;;;;;;;;;;6185125;28;20293;-58
2024/01/27 05:57:48;;;;;;;1.00;1.00;;;;;;;;;;6185153;28;20290;-56
2024/01/27 06:00:53;;;;;;;0.90;0.90;;;;;;;;;;6184581;28;20305;-56
2024/01/27 06:03:58;;;;;;;1.13;1.10;;;;;;;;;;6184313;28;20438;-56
2024/01/27 06:07:02;;;;;;;1.00;1.00;;;;;;;;;;6185020;28;20289;-57
2024/01/27 06:10:09;;;;;;;1.30;1.30;;;;;;;;;;6184495;28;20313;-55
2024/01/27 06:13:12;;;;;;;0.90;0.90;;;;;;;;;;6185263;28;20309;-55
2024/01/27 06:16:19;;;;;;;1.10;1.10;;;;;;;;;;6184640;28;20598;-58
2024/01/27 06:19:23;;;;;;;1.47;1.20;;;;;;;;;;6166912;28;20304;-54
2024/01/27 06:22:27;;;;;;;1.00;1.00;;;;;;;;;;6185993;28;20297;-57
2024/01/27 06:25:31;;;;;;;1.23;1.23;;;;;;;;;;6184370;28;20310;-57
2024/01/27 06:28:35;;;;;;;1.23;1.23;;;;;;;;;;6183996;28;20300;-57
2024/01/27 06:31:40;;;;;;;1.00;1.00;;;;;;;;;;6184594;28;20294;-58
2024/01/27 06:34:44;;;;;;;1.07;1.07;;;;;;;;;;6184040;28;20297;-56
2024/01/27 06:37:50;;;;;;;1.00;1.00;;;;;;;;;;6184927;28;20293;-57
2024/01/27 06:40:54;;;;;;;1.17;1.17;;;;;;;;;;6184160;28;20589;-58
2024/01/27 06:43:58;;;;;;;1.27;1.20;;;;;;;;;;6184311;28;20293;-56
2024/01/27 06:47:04;;;;;;;1.17;1.17;;;;;;;;;;6181280;28;20566;-57
2024/01/27 06:50:09;;;;;;;1.10;1.10;;;;;;;;;;6164387;28;20308;-56
2024/01/27 06:53:13;;;;;;;1.13;1.13;;;;;;;;;;6184705;28;20287;-56
2024/01/27 06:56:17;;;;;;;1.17;1.17;;;;;;;;;;6183787;28;20296;-56
2024/01/27 06:59:21;;;;;;;1.17;1.17;;;;;;;;;;6165838;28;20309;-56
2024/01/27 07:02:27;;;;;;;1.00;1.00;;;;;;;;;;6184347;28;20304;-57
2024/01/27 07:05:33;;;;;;;1.10;1.10;;;;;;;;;;6175614;28;20512;-56
2024/01/27 07:08:37;;;;;;;0.87;0.87;;;;;;;;;;6183155;28;20297;-57
2024/01/27 07:11:41;;;;;;;1.17;1.13;;;;;;;;;;6188960;28;20296;-56
2024/01/27 07:14:45;;;;;;;1.00;1.00;;;;;;;;;;6189319;28;20355;-57
2024/01/27 07:17:51;;;;;;;1.10;1.10;;;;;;;;;;6180424;28;20293;-57
2024/01/27 07:20:55;;;;;;;1.00;1.00;;;;;;;;;;6187648;28;20300;-58
2024/01/27 07:23:59;;;;;;;1.10;1.10;;;;;;;;;;6187902;28;20304;-56
2024/01/27 07:27:04;;;;;;;1.73;1.40;;;;;;;;;;6188515;28;20389;-54
2024/01/27 07:30:11;;;;;;;1.40;1.40;;;;;;;;;;6188109;28;20304;-56
2024/01/27 07:33:16;;;;;;;1.23;1.23;;;;;;;;;;6188374;28;20317;-56
2024/01/27 07:36:20;;;;;;;1.20;1.10;;;;;;;;;;6187797;28;20293;-56
2024/01/27 07:39:24;;;;;;;1.20;1.20;;;;;;;;;;6187401;28;20301;-57
2024/01/27 07:42:28;;;;;;;1.20;1.10;;;;;;;;;;6189053;28;20292;-57
2024/01/27 07:45:32;;;;;;;1.43;1.33;;;;;;;;;;6187584;28;20300;-57
2024/01/27 07:48:37;;;;;;;1.20;1.20;;;;;;;;;;6187816;28;20289;-57
2024/01/27 07:51:42;;;;;;;2.23;1.20;;;;;;;;;;6178210;28;20581;-58
2024/01/27 07:54:46;;;;;;;1.20;1.20;;;;;;;;;;6187095;28;20293;-56
2024/01/27 07:57:50;;;;;;;2.83;1.40;;;;;;;;;;6188290;28;20292;-57
2024/01/27 08:00:54;;;;;;;1.30;1.30;;;;;;;;;;6187253;28;20407;-57
2024/01/27 08:03:59;;;;;;;1.13;1.13;;;;;;;;;;6187186;28;20558;-57
2024/01/27 08:07:09;;;;;;;1.93;1.17;;;;;;;;;;6187818;28;20467;-57
2024/01/27 08:10:13;;;;;;;1.30;1.30;;;;;;;;;;6186984;28;20297;-57
2024/01/27 08:13:17;;;;;;;1.20;1.20;;;;;;;;;;6187679;28;20297;-57
2024/01/27 08:16:21;;;;;;;2.60;1.27;;;;;;;;;;6186218;28;20297;-56
2024/01/27 08:19:27;;;;;;;2.50;1.30;;;;;;;;;;6186943;28;20296;-56
2024/01/27 08:22:31;;;;;;;1.33;1.03;;;;;;;;;;6185195;28;20312;-56
2024/01/27 08:25:35;;;;;;;1.43;1.40;;;;;;;;;;6186917;28;20487;-56
2024/01/27 08:28:39;;;;;;;1.40;1.30;;;;;;;;;;6186410;28;20293;-56
2024/01/27 08:31:43;;;;;;;1.30;1.30;;;;;;;;;;6187090;28;20300;-56
2024/01/27 08:34:49;;;;;;;2.00;1.20;;;;;;;;;;6186066;28;20293;-56
2024/01/27 08:37:53;;;;;;;1.70;1.40;;;;;;;;;;6187290;28;20363;-58
2024/01/27 08:40:57;;;;;;;2.90;1.30;;;;;;;;;;6186619;28;20423;-57
2024/01/27 08:44:01;;;;;;;2.00;1.50;;;;;;;;;;6186806;28;20292;-55
2024/01/27 08:47:05;;;;;;;2.03;1.70;;;;;;;;;;6186856;28;20303;-56
2024/01/27 08:50:13;;;;;;;2.53;1.30;;;;;;;;;;6187546;28;20340;-58
2024/01/27 08:53:17;;;;;;;1.40;1.40;;;;;;;;;;6185943;28;20364;-55
2024/01/27 08:56:21;;;;;;;2.23;1.50;;;;;;;;;;6186723;28;20288;-56
2024/01/27 08:59:24;;;;;;;2.60;1.70;;;;;;;;;;6186464;28;20304;-58
2024/01/27 09:02:28;;;;;;;1.53;1.43;;;;;;;;;;6186294;28;20318;-56
2024/01/27 09:05:34;;;;;;;1.60;1.50;;;;;;;;;;6185600;28;20488;-57
2024/01/27 09:08:38;;;;;;;7.10;1.93;;;;;;;;;;6185640;28;20462;-58
2024/01/27 09:11:42;;;;;;;4.10;1.40;;;;;;;;;;6186353;28;20297;-57
2024/01/27 09:14:46;;;;;;;3.03;1.60;;;;;;;;;;6185772;28;20290;-58
2024/01/27 09:17:49;;;;;;;4.93;1.57;;;;;;;;;;6186738;28;20599;-58
2024/01/27 09:20:55;;;;;;;3.60;1.70;;;;;;;;;;6185677;28;20334;-57
2024/01/27 09:24:01;;;;;;;1.80;1.20;;;;;;;;;;6184946;28;20316;-57
2024/01/27 09:27:05;;;;;;;2.60;1.50;;;;;;;;;;6185470;28;20290;-56
2024/01/27 09:30:10;;;;;;;4.10;1.83;;;;;;;;;;6184982;28;20295;-56
2024/01/27 09:33:14;;;;;;;3.20;1.90;;;;;;;;;;6185312;28;20297;-59
2024/01/27 09:36:20;;;;;;;4.10;1.50;;;;;;;;;;6185150;28;20296;-56
2024/01/27 09:39:24;;;;;;;4.43;1.60;;;;;;;;;;6184860;28;20304;-58
2024/01/27 09:42:28;;;;;;;4.43;1.70;;;;;;;;;;6185777;28;20293;-55
2024/01/27 09:45:32;;;;;;;1.80;1.70;;;;;;;;;;6185120;28;20301;-57
2024/01/27 09:48:37;;;;;;;3.43;1.43;;;;;;;;;;6176469;28;20298;-58
2024/01/27 09:51:43;;;;;;;2.93;1.60;;;;;;;;;;6185371;28;20598;-58
2024/01/27 09:54:47;;;;;;;3.90;1.40;;;;;;;;;;6184942;28;20321;-58
2024/01/27 09:57:52;;;;;;;3.77;1.57;;;;;;;;;;6185553;28;20284;-56
2024/01/27 10:00:58;;;;;;;3.90;1.70;;;;;;;;;;6184623;28;20307;-58
2024/01/27 10:04:02;;;;;;;2.13;1.40;;;;;;;;;;6184721;28;20286;-58
2024/01/27 10:07:08;;;;;;;3.07;1.60;;;;;;;;;;6184996;28;20297;-59
2024/01/27 10:10:12;;;;;;;7.50;2.17;;;;;;;;;;6184208;28;20612;-56
2024/01/27 10:13:18;;;;;;;4.73;1.50;;;;;;;;;;6184889;28;20296;-59
2024/01/27 10:16:22;;;;;;;2.63;1.80;;;;;;;;;;6184339;28;20297;-57
2024/01/27 10:19:26;;;;;;;2.93;1.30;;;;;;;;;;6184328;28;20298;-57
2024/01/27 10:22:38;;;;;;;2.60;1.57;;;;;;;;;;6183672;28;20329;-56
2024/01/27 10:25:42;;;;;;;6.57;1.90;;;;;;;;;;6184174;28;20296;-57
2024/01/27 10:28:53;;;;;;;6.00;1.70;;;;;;;;;;6184525;28;20292;-56
2024/01/27 10:32:08;;;;;;;4.83;1.37;;;;;;;;;;6184809;28;20298;-58
2024/01/27 10:35:12;;;;;;;3.97;1.37;;;;;;;;;;6184020;28;20296;-57
2024/01/27 10:38:17;;;;;;;3.90;1.60;;;;;;;;;;6184741;28;20645;-56
2024/01/27 10:41:23;;;;;;;4.73;1.37;;;;;;;;;;6184288;28;20455;-57
2024/01/27 10:44:29;;;;;;;2.87;1.50;;;;;;;;;;6185405;28;20297;-55
2024/01/27 10:47:34;;;;;;;3.90;1.80;;;;;;;;;;6189853;28;20297;-58
2024/01/27 10:50:39;;;;;;;1.67;1.33;;;;;;;;;;6189015;28;20296;-55
2024/01/27 10:53:52;;;;;;;5.10;1.60;;;;;;;;;;6188786;28;20322;-58
2024/01/27 10:56:58;;;;;;;3.13;1.60;;;;;;;;;;6189170;28;20295;-58
2024/01/27 11:00:06;;;;;;;4.87;1.77;;;;;;;;;;6189310;28;20297;-57
2024/01/27 11:03:11;;;;;;;1.60;1.50;;;;;;;;;;6189135;28;20403;-58
2024/01/27 11:06:16;;;;;;;4.77;1.73;;;;;;;;;;6188595;28;20298;-57
2024/01/27 11:09:22;;;;;;;3.17;1.60;;;;;;;;;;6188780;28;20300;-56
2024/01/27 11:12:26;;;;;;;6.03;1.73;;;;;;;;;;6188876;28;20297;-56
2024/01/27 11:15:32;;;;;;;8.53;2.10;;;;;;;;;;6188816;28;20266;-57
2024/01/27 11:18:36;;;;;;;4.80;2.10;;;;;;;;;;6189630;28;20301;-58
2024/01/27 11:21:40;;;;;;;5.80;1.83;;;;;;;;;;6188517;28;20325;-56
2024/01/27 11:24:46;;;;;;;4.63;1.73;;;;;;;;;;6187398;28;20301;-58
2024/01/27 11:27:51;;;;;;;4.53;1.90;;;;;;;;;;6189302;28;20468;-60
2024/01/27 11:30:55;;;;;;;5.37;1.70;;;;;;;;;;6188574;28;20293;-54
2024/01/27 11:33:59;;;;;;;2.33;1.90;;;;;;;;;;6188292;28;20298;-57
2024/01/27 11:37:11;;;;;;;5.70;1.83;;;;;;;;;;6188935;28;20289;-55
2024/01/27 11:40:17;;;;;;;3.70;1.50;;;;;;;;;;6187604;28;20305;-56
2024/01/27 11:43:21;;;;;;;4.50;1.83;;;;;;;;;;6188137;28;20467;-56
2024/01/27 11:46:25;;;;;;;7.03;1.87;;;;;;;;;;6187705;28;20290;-57
2024/01/27 11:49:29;;;;;;;5.70;1.60;;;;;;;;;;6187484;28;20302;-56
2024/01/27 11:52:33;;;;;;;5.00;1.80;;;;;;;;;;6188215;28;20306;-58
2024/01/27 11:55:38;;;;;;;3.80;1.70;;;;;;;;;;6186878;28;20294;-58
2024/01/27 11:58:49;;;;;;;3.50;1.50;;;;;;;;;;6187121;28;20300;-58
2024/01/27 12:01:53;;;;;;;5.43;1.47;;;;;;;;;;6188197;28;20286;-57
2024/01/27 12:04:58;;;;;;;1.90;1.43;;;;;;;;;;6187972;28;20296;-56
2024/01/27 12:08:05;;;;;;;3.30;1.30;;;;;;;;;;6175970;28;20573;-57
2024/01/27 12:11:16;;;;;;;6.80;2.00;;;;;;;;;;6183817;28;20301;-57
2024/01/27 12:14:39;;;;;;;7.93;1.57;;;;;;;;;;6186828;28;20473;-57
2024/01/27 12:17:42;;;;;;;3.10;1.60;;;;;;;;;;6187299;28;20305;-57
2024/01/27 12:20:48;;;;;;;2.83;1.70;;;;;;;;;;6169272;28;20591;-56
2024/01/27 12:23:53;;;;;;;1.70;1.60;;;;;;;;;;6186541;28;20305;-58
2024/01/27 12:26:59;;;;;;;2.40;1.63;;;;;;;;;;6187224;28;20286;-58
2024/01/27 12:30:03;;;;;;;3.57;1.70;;;;;;;;;;6186697;28;20297;-58
2024/01/27 12:33:10;;;;;;;2.50;1.73;;;;;;;;;;6186920;28;20305;-58
2024/01/27 12:36:15;;;;;;;4.30;1.50;;;;;;;;;;6186512;28;20332;-57
2024/01/27 12:39:19;;;;;;;6.13;2.03;;;;;;;;;;6186473;28;20309;-58
2024/01/27 12:42:24;;;;;;;3.67;1.53;;;;;;;;;;6186711;28;20290;-60
2024/01/27 12:45:29;;;;;;;4.17;1.33;;;;;;;;;;6185752;28;20302;-57
2024/01/27 12:48:34;;;;;;;5.30;1.77;;;;;;;;;;6186660;28;20310;-58
2024/01/27 12:51:38;;;;;;;2.90;1.70;;;;;;;;;;6186117;28;20297;-56
2024/01/27 12:54:47;;;;;;;3.20;1.90;;;;;;;;;;6186406;28;20291;-54
2024/01/27 12:57:53;;;;;;;4.87;1.70;;;;;;;;;;6186842;28;20290;-57
2024/01/27 13:00:57;;;;;;;7.20;2.10;;;;;;;;;;6186489;28;20291;-57
2024/01/27 13:04:01;;;;;;;6.33;1.60;;;;;;;;;;6186084;28;20469;-56
2024/01/27 13:07:06;;;;;;;3.37;1.50;;;;;;;;;;6186046;28;20587;-58
2024/01/27 13:10:10;;;;;;;3.13;1.33;;;;;;;;;;6185743;28;20299;-56
2024/01/27 13:13:15;;;;;;;1.67;1.57;;;;;;;;;;6186511;28;20583;-58
2024/01/27 13:16:19;;;;;;;3.23;1.80;;;;;;;;;;6186059;28;20563;-58
2024/01/27 13:19:23;;;;;;;1.70;1.37;;;;;;;;;;6186063;28;20399;-58
2024/01/27 13:22:27;;;;;;;3.97;1.70;;;;;;;;;;6186318;28;20595;-56
2024/01/27 13:25:31;;;;;;;4.40;1.80;;;;;;;;;;6185289;28;20534;-57
2024/01/27 13:28:36;;;;;;;4.77;1.77;;;;;;;;;;6185796;28;20298;-57
2024/01/27 13:31:40;;;;;;;3.47;1.90;;;;;;;;;;6185473;28;20370;-54
2024/01/27 13:34:44;;;;;;;5.53;1.80;;;;;;;;;;6185417;28;20294;-58
2024/01/27 13:37:48;;;;;;;6.37;1.90;;;;;;;;;;6185979;28;20295;-57
2024/01/27 13:40:52;;;;;;;5.33;1.77;;;;;;;;;;6185636;28;20290;-57
2024/01/27 13:43:58;;;;;;;3.13;1.73;;;;;;;;;;6184757;28;20309;-57
2024/01/27 13:47:02;;;;;;;3.70;2.33;;;;;;;;;;6185626;28;20333;-58
2024/01/27 13:50:07;;;;;;;3.47;1.87;;;;;;;;;;6184689;28;20456;-58
2024/01/27 13:53:11;;;;;;;5.27;3.00;;;;;;;;;;6185559;28;20300;-57
2024/01/27 13:56:15;;;;;;;10.17;3.43;;;;;;;;;;6184554;28;20293;-57
2024/01/27 13:59:21;;;;;;;7.70;2.80;;;;;;;;;;6184801;28;20293;-59
2024/01/27 14:02:25;;;;;;;4.87;2.30;;;;;;;;;;6184993;28;20303;-58
2024/01/27 14:05:29;;;;;;;4.40;1.87;;;;;;;;;;6184647;28;20301;-58
2024/01/27 14:08:33;;;;;;;4.60;2.37;;;;;;;;;;6185009;28;20293;-59
2024/01/27 14:11:37;;;;;;;4.93;2.50;;;;;;;;;;6184585;28;20293;-57
2024/01/27 14:14:43;;;;;;;4.60;2.60;;;;;;;;;;6184469;28;20300;-57
2024/01/27 14:17:47;;;;;;;2.50;2.00;;;;;;;;;;6184630;28;20286;-58
2024/01/27 14:20:51;;;;;;;4.13;2.30;;;;;;;;;;6184528;28;20290;-59
2024/01/27 14:24:00;;;;;;;3.47;1.90;;;;;;;;;;6184234;28;24127;-60
2024/01/27 14:27:05;;;;;;;3.17;1.90;;;;;;;;;;6184678;28;20305;-59
2024/01/27 14:30:13;;;;;;;4.17;1.80;;;;;;;;;;6184395;28;20297;-59
2024/01/27 14:33:20;;;;;;;4.13;1.80;;;;;;;;;;6185027;28;20306;-57
2024/01/27 14:36:25;;;;;;;7.57;2.07;;;;;;;;;;6184321;28;20297;-58
2024/01/27 14:39:30;;;;;;;4.97;2.27;;;;;;;;;;6184455;28;20299;-58
2024/01/27 14:42:36;;;;;;;8.87;2.67;;;;;;;;;;6184767;28;20314;-59
2024/01/27 14:45:42;;;;;;;8.37;2.80;;;;;;;;;;6184004;28;20305;-59
2024/01/27 14:48:46;;;;;;;13.40;3.20;;;;;;;;;;6184243;28;20290;-59
2024/01/27 14:51:51;;;;;;;2.87;2.63;;;;;;;;;;6167225;28;20296;-58
2024/01/27 14:54:55;;;;;;;7.47;2.40;;;;;;;;;;6183928;28;20297;-57
2024/01/27 14:57:59;;;;;;;3.80;2.30;;;;;;;;;;6167196;28;20294;-58
2024/01/27 15:01:04;;;;;;;5.60;2.33;;;;;;;;;;6183270;28;20309;-58
2024/01/27 15:04:08;;;;;;;4.10;2.37;;;;;;;;;;6183554;28;20310;-57
2024/01/27 15:07:17;;;;;;;5.20;2.10;;;;;;;;;;6184324;28;20329;-57
2024/01/27 15:10:21;;;;;;;4.37;2.40;;;;;;;;;;6183578;28;20293;-58
2024/01/27 15:13:27;;;;;;;6.87;1.80;;;;;;;;;;6184513;28;20309;-56
2024/01/27 15:16:34;;;;;;;5.13;2.83;;;;;;;;;;6183851;28;20452;-57
2024/01/27 15:19:38;;;;;;;6.33;2.47;;;;;;;;;;6183869;28;20430;-58
2024/01/27 15:22:44;;;;;;;7.87;2.60;;;;;;;;;;6183991;28;20301;-58
2024/01/27 15:25:48;;;;;;;5.40;2.07;;;;;;;;;;6183625;28;20309;-58
2024/01/27 15:28:52;;;;;;;2.77;2.40;;;;;;;;;;6183721;28;20298;-59
2024/01/27 15:31:58;;;;;;;4.00;2.40;;;;;;;;;;6187325;28;20286;-57
2024/01/27 15:35:01;;;;;;;4.43;2.10;;;;;;;;;;6188170;28;20579;-58
2024/01/27 15:38:06;;;;;;;6.00;2.33;;;;;;;;;;6188776;28;20301;-58
2024/01/27 15:41:10;;;;;;;4.43;2.20;;;;;;;;;;6188116;28;20289;-57
2024/01/27 15:44:14;;;;;;;4.27;2.20;;;;;;;;;;6187665;28;20515;-58
2024/01/27 15:47:20;;;;;;;2.80;1.90;;;;;;;;;;6189724;28;20298;-58
2024/01/27 15:50:27;;;;;;;3.70;2.30;;;;;;;;;;6187687;28;20582;-56
2024/01/27 15:53:31;;;;;;;3.27;2.23;;;;;;;;;;6188216;28;20290;-57
2024/01/27 15:56:35;;;;;;;4.03;2.50;;;;;;;;;;6187839;28;20330;-56
2024/01/27 15:59:39;;;;;;;4.83;2.60;;;;;;;;;;6187376;28;20297;-57
2024/01/27 16:02:45;;;;;;;2.10;1.90;;;;;;;;;;6187947;28;20300;-60
2024/01/27 16:05:48;;;;;;;4.83;2.20;;;;;;;;;;6187500;28;20300;-57
2024/01/27 16:08:53;;;;;;;2.53;1.87;;;;;;;;;;6187188;28;20609;-57
2024/01/27 16:11:57;;;;;;;4.20;2.03;;;;;;;;;;6188019;28;20589;-58
2024/01/27 16:15:01;;;;;;;2.87;1.83;;;;;;;;;;6189004;28;20297;-57
2024/01/27 16:18:07;;;;;;;4.03;2.13;;;;;;;;;;6187800;28;20294;-57
2024/01/27 16:21:11;;;;;;;4.27;1.97;;;;;;;;;;6187238;28;20593;-56
2024/01/27 16:24:15;;;;;;;5.23;2.30;;;;;;;;;;6174743;28;20314;-55
2024/01/27 16:27:21;;;;;;;6.87;2.30;;;;;;;;;;6186374;28;20432;-58
2024/01/27 16:30:27;;;;;;;5.30;2.17;;;;;;;;;;6172377;28;20301;-56
2024/01/27 16:33:32;;;;;;;5.90;2.00;;;;;;;;;;6161949;28;20429;-57
2024/01/27 16:36:37;;;;;;;1.80;1.70;;;;;;;;;;6162187;29;20298;-58
2024/01/27 16:39:41;;;;;;;6.07;2.00;;;;;;;;;;6161475;28;20298;-58
2024/01/27 16:42:46;;;;;;;6.27;1.87;;;;;;;;;;6160693;28;20298;-59
2024/01/27 16:45:51;;;;;;;7.43;2.13;;;;;;;;;;6161262;29;20392;-59
2024/01/27 16:48:56;;;;;;;2.97;1.73;;;;;;;;;;6161365;29;20290;-58
2024/01/27 16:52:01;;;;;;;4.87;2.47;;;;;;;;;;6161638;29;20294;-56
2024/01/27 16:55:06;;;;;;;3.60;1.90;;;;;;;;;;6161289;28;20302;-57
2024/01/27 16:58:10;;;;;;;4.23;2.17;;;;;;;;;;6161673;29;20306;-58
2024/01/27 17:01:14;;;;;;;5.70;2.43;;;;;;;;;;6160952;28;20321;-59
2024/01/27 17:04:20;;;;;;;3.77;2.10;;;;;;;;;;6160863;29;20358;-58
2024/01/27 17:07:24;;;;;;;3.73;2.17;;;;;;;;;;6161541;28;20306;-58
2024/01/27 17:10:28;;;;;;;6.00;2.50;;;;;;;;;;6161134;28;20301;-59
2024/01/27 17:13:32;;;;;;;7.50;2.80;;;;;;;;;;6161741;28;20297;-60
2024/01/27 17:16:36;;;;;;;4.80;2.00;;;;;;;;;;6161077;28;20576;-57
2024/01/27 17:19:42;;;;;;;4.63;2.40;;;;;;;;;;6160809;28;20586;-59
2024/01/27 17:22:46;;;;;;;8.57;2.70;;;;;;;;;;6117805;28;1266289;-58
2024/01/27 17:25:50;;;;;;;9.97;2.80;;;;;;;;;;6171161;28;20541;-57
2024/01/27 17:28:54;;;;;;;4.23;2.33;;;;;;;;;;6185665;28;20294;-58
2024/01/27 17:31:58;;;;;;;9.80;2.90;;;;;;;;;;6186180;28;20301;-57
2024/01/27 17:35:04;;;;;;;7.60;2.50;;;;;;;;;;6185235;28;20291;-58
2024/01/27 17:38:08;;;;;;;7.80;2.70;;;;;;;;;;6186034;28;20313;-58
2024/01/27 17:41:12;;;;;;;5.40;2.97;;;;;;;;;;6185100;28;20301;-58
2024/01/27 17:44:16;;;;;;;10.37;2.97;;;;;;;;;;6185071;28;20302;-58
2024/01/27 17:47:20;;;;;;;4.63;2.70;;;;;;;;;;6185657;28;20307;-58
2024/01/27 17:50:25;;;;;;;12.47;3.70;;;;;;;;;;6185115;28;20302;-58
2024/01/27 17:53:30;;;;;;;7.27;2.80;;;;;;;;;;6185359;28;20301;-58
2024/01/27 17:56:34;;;;;;;8.23;3.23;;;;;;;;;;6185638;28;20298;-57
2024/01/27 17:59:39;;;;;;;5.03;3.17;;;;;;;;;;6185135;28;20294;-58
2024/01/27 18:02:43;;;;;;;6.63;3.17;;;;;;;;;;6185670;28;20292;-60
2024/01/27 18:05:50;;;;;;;13.27;3.63;;;;;;;;;;6184908;28;20303;-59
2024/01/27 18:08:54;;;;;;;6.20;2.90;;;;;;;;;;6185077;28;20294;-59
2024/01/27 18:11:58;;;;;;;5.50;3.20;;;;;;;;;;6176266;28;20292;-58
2024/01/27 18:15:01;;;;;;;13.60;3.50;;;;;;;;;;6184588;28;20289;-59
2024/01/27 18:18:06;;;;;;;8.70;3.43;;;;;;;;;;6185392;28;20319;-59
2024/01/27 18:21:12;;;;;;;5.80;2.97;;;;;;;;;;6184571;28;20297;-58
2024/01/27 18:24:17;;;;;;;13.70;3.50;;;;;;;;;;6184356;28;20464;-59
2024/01/27 18:27:21;;;;;;;12.47;3.57;;;;;;;;;;6184998;28;20592;-58